EMPK1: COTTONWOOD R AT EMPORIA

                                SHEF ID:       EMPK1     COTTONWOOD R AT EMPORIA
STATION TYPE:

STAGE RIV-FLOW BAT-LOAD
ft cfs volt
Ccp-Rev Ccp-Rev Ccp-Rev
(America/Chicago)
04/25 00:00 8.35 2935 12.81
04/25 01:00 8.73 3171 12.73
04/25 02:00 9.11 3413 12.73
04/25 03:00 9.46 3641 12.73
04/25 04:00 9.77 3847 12.73
04/25 05:00 10.04 4029 12.65
04/25 06:00 10.24 4166 12.65
04/25 07:00 10.42 4290 12.57
04/25 08:00 10.52 4360 12.73
04/25 09:00 10.55 4381 13.29
04/25 10:00 10.51 4353 13.37
04/25 11:00 10.46 4318 13.60
04/25 12:00 10.34 4235 13.60
04/25 13:00 10.18 4125 13.68
04/25 14:00 10.00 4002 13.53
04/25 15:00 9.78 3853 13.44
04/25 16:00 9.57 3713 13.53
04/25 17:00 9.30 3536 13.44
04/25 18:00 9.01 3348 13.44
04/25 19:00 8.72 3164 13.37
04/25 20:00 8.42 2978 13.29
04/25 21:00 8.14 2807 12.89
04/25 22:00 7.85 2634 12.81
04/25 23:00 7.58 2476 12.81
Data processed at Sun 26Apr2026 04:36 GMT

NOTICE: If you are parsing this page

Please convert to using our Data API. Starting early 2026 we will be migrating to: https://water.usace.army.mil with modern pages rendered in JavaScript. When this migration completes you will no longer be able to scrape this page! CWMSDataAPI (CDA)

Timeseries IDs (TSIDs)

TSIDs used from left to right in the data table
CEMP.Stage.Inst.1Hour.0.Ccp-Rev
CEMP.Flow.Inst.1Hour.0.Ccp-Rev
CEMP.Volt-Battery Load.Inst.1Hour.0.Ccp-Rev

                            

All information presented herein is the property of the government of the United States of America and may be revised or deleted at any time without prior notice. Dissemination of this information without the expressed written consent of the Public Affairs Office, Tulsa District U.S. Army Corps of Engineers is strictly prohibited. These data are gathered electronically and, as presented, have NOT undergone any form of quality control. These data are NOT guaranteed to be valid or correct.